Flight Track Log - Related Links

Times and Time Zones

All times are in EDT time to prevent confusion due to time zone crossing. See the TAM3030 flight status page for this flight to view local times or setup timezone preferences in your user account.


Time Position Orientation Groundspeed Altitude Reporting Facility
EDT Latitude Longitude Course Direction KTS MPH feet Rate Location/Type
Wed 08:08:00 PM -20.4290 -44.8932 327° Northwest  Level Estimated
Wed 08:09:00 PM -20.3401 -44.9540 327° Northwest  Level Estimated
Wed 08:10:00 PM -20.2511 -45.0146 327° Northwest  Level Estimated
Wed 08:11:00 PM -20.1621 -45.0752 327° Northwest  Level Estimated
Wed 08:12:00 PM -20.0731 -45.1357 327° Northwest  Level Estimated
Wed 08:13:00 PM -19.9841 -45.1962 327° Northwest  Level Estimated
Wed 08:14:00 PM -19.8951 -45.2565 327° Northwest  Level Estimated
Wed 08:15:00 PM -19.8060 -45.3168 327° Northwest  Level Estimated
Wed 08:16:00 PM -19.7169 -45.3771 328° Northwest  Level Estimated
Wed 08:17:00 PM -19.6278 -45.4372 328° Northwest  Level Estimated
Wed 08:18:00 PM -19.5387 -45.4973 328° Northwest  Level Estimated
Wed 08:19:00 PM -19.4495 -45.5574 328° Northwest  Level Estimated
Wed 08:20:00 PM -19.3603 -45.6174 328° Northwest  Level Estimated
Wed 08:21:00 PM -19.2711 -45.6773 328° Northwest  Level Estimated
Wed 08:22:00 PM -19.1819 -45.7371 328° Northwest  Level Estimated
Wed 08:23:00 PM -19.0927 -45.7969 328° Northwest  Level Estimated
Wed 08:24:00 PM -19.0035 -45.8566 328° Northwest  Level Estimated
Wed 08:25:00 PM -18.9142 -45.9162 328° Northwest  Level Estimated
Wed 08:26:00 PM -18.8249 -45.9758 328° Northwest  Level Estimated
Wed 08:27:00 PM -18.7356 -46.0353 328° Northwest  Level Estimated
Wed 08:28:00 PM -18.6463 -46.0948 328° Northwest  Level Estimated
Wed 08:29:00 PM -18.5569 -46.1542 328° Northwest  Level Estimated
Wed 08:30:00 PM -18.4676 -46.2135 328° Northwest  Level Estimated
Wed 08:31:00 PM -18.3782 -46.2728 328° Northwest  Level Estimated
Wed 08:32:00 PM -18.2888 -46.3320 328° Northwest  Level Estimated
Wed 08:33:00 PM -18.1994 -46.3912 328° Northwest  Level Estimated
Wed 08:34:00 PM -18.1100 -46.4502 328° Northwest  Level Estimated
Wed 08:35:00 PM -18.0205 -46.5093 328° Northwest  Level Estimated
Wed 08:36:00 PM -17.9310 -46.5682 328° Northwest  Level Estimated
Wed 08:37:00 PM -17.8416 -46.6272 328° Northwest  Level Estimated
Wed 08:38:00 PM -17.7521 -46.6860 328° Northwest  Level Estimated
Wed 08:39:00 PM -17.6625 -46.7448 328° Northwest  Level Estimated
Wed 08:40:00 PM -17.5730 -46.8035 328° Northwest  Level Estimated
Wed 08:41:00 PM -17.4834 -46.8622 328° Northwest  Level Estimated
Wed 08:42:00 PM -17.3939 -46.9208 328° Northwest  Level Estimated
Wed 08:43:00 PM -17.3043 -46.9794 328° Northwest  Level Estimated
Wed 08:44:00 PM -17.2147 -47.0379 328° Northwest  Level Estimated
Wed 08:45:00 PM -17.1250 -47.0963 328° Northwest  Level Estimated
Wed 08:46:00 PM -17.0354 -47.1547 328° Northwest  Level Estimated
Wed 08:47:00 PM -16.9457 -47.2130 328° Northwest  Level Estimated
Wed 08:48:00 PM -16.8561 -47.2713 328° Northwest  Level Estimated
Wed 08:49:00 PM -16.7664 -47.3295 328° Northwest  Level Estimated
Wed 08:50:00 PM -16.6767 -47.3877 328° Northwest  Level Estimated
Wed 08:51:00 PM -16.5870 -47.4458 328° Northwest  Level Estimated
Wed 08:52:00 PM -16.4972 -47.5039 328° Northwest  Level Estimated
Wed 08:53:00 PM -16.4075 -47.5619 328° Northwest  Level Estimated
Wed 08:54:00 PM -16.3177 -47.6198 328° Northwest  Level Estimated
Wed 08:55:00 PM -16.2279 -47.6777 328° Northwest  Level Estimated
Wed 08:56:00 PM -16.1381 -47.7356 328° Northwest  Level Estimated
Wed 08:57:00 PM -16.0483 -47.7934 328° Northwest  Level Estimated
Wed 08:58:00 PM -15.9585 -47.8511 328° Northwest  Level Estimated
Wed 08:59:00 PM -15.8686 -47.9088 328° Northwest  Level Estimated
Wed 09:00:00 PM -15.8626 -47.9127 328° Northwest  Level Estimated
Wed 09:01:00 PM -15.8626 -47.9127 128° Southeast  Level Estimated
Wed 09:02:00 PM -15.8626 -47.9127 128° Southeast  Level Estimated
Wed 09:03:00 PM -15.8626 -47.9127 128° Southeast  Level Estimated
Wed 09:04:00 PM -15.8626 -47.9127 128° Southeast  Level Estimated
Wed 09:05:00 PM -15.8626 -47.9127 128° Southeast  Level Estimated
Wed 09:06:00 PM -15.8626 -47.9127 128° Southeast  Level Estimated
Wed 09:07:00 PM -15.8626 -47.9127 128° Southeast  Level Estimated
Wed 09:08:00 PM -15.8626 -47.9127 128° Southeast  Level Estimated
Wed 09:09:00 PM -15.8626 -47.9127 128° Southeast  Level Estimated
Wed 09:10:00 PM -15.8626 -47.9127 128° Southeast  Level Estimated
Wed 09:11:00 PM -15.8626 -47.9127 128° Southeast  Level Estimated

Login

Don't have an account? Register now (free) for customized features, flight alerts, and more!